createdAt,value
2023-11-05T00:00:38.623Z,8.40
2023-11-05T00:03:06.140Z,8.30
2023-11-05T00:05:33.714Z,8.20
2023-11-05T00:08:01.164Z,8.30
2023-11-05T00:10:28.806Z,8.30
2023-11-05T00:12:56.473Z,8.30
2023-11-05T00:15:24.090Z,8.20
2023-11-05T00:17:51.641Z,8.20
2023-11-05T00:20:19.583Z,8.30
2023-11-05T00:22:47.333Z,8.30
2023-11-05T00:25:14.938Z,8.30
2023-11-05T00:27:42.466Z,8.20
2023-11-05T00:30:10.317Z,8.20
2023-11-05T00:32:37.883Z,8.20
2023-11-05T00:35:05.966Z,8.30
2023-11-05T00:37:33.679Z,8.30
2023-11-05T00:40:04.393Z,8.30
2023-11-05T00:42:33.860Z,8.20
2023-11-05T00:45:01.358Z,8.20
2023-11-05T00:47:28.861Z,8.30
2023-11-05T00:49:57.707Z,8.30
2023-11-05T00:52:25.295Z,8.20
2023-11-05T00:54:52.757Z,8.20
2023-11-05T00:57:20.500Z,8.20
2023-11-05T00:59:48.017Z,8.20
2023-11-05T01:02:16.250Z,8.20
2023-11-05T01:04:45.142Z,8.30
2023-11-05T01:07:12.804Z,8.20
2023-11-05T01:09:40.250Z,8.20
2023-11-05T01:12:07.981Z,8.20
2023-11-05T01:14:35.487Z,8.20
2023-11-05T01:17:03.100Z,8.20
2023-11-05T01:19:30.649Z,8.10
2023-11-05T01:21:58.311Z,8.10
2023-11-05T01:24:26.528Z,8.20
2023-11-05T01:26:54.029Z,8.10
2023-11-05T01:29:21.693Z,8.10
2023-11-05T01:31:49.694Z,8.10
2023-11-05T01:34:17.489Z,8.10
2023-11-05T01:36:45.042Z,8.10
2023-11-05T01:39:12.534Z,8.10
2023-11-05T01:41:40.129Z,8.10
2023-11-05T01:44:07.615Z,8.10
2023-11-05T01:46:35.152Z,8.20
2023-11-05T01:49:05.417Z,8.00
2023-11-05T01:51:33.591Z,8.20
2023-11-05T01:54:01.169Z,8.10
2023-11-05T01:56:31.107Z,8.20
2023-11-05T01:59:00.276Z,8.20
2023-11-05T02:01:28.237Z,8.10
2023-11-05T02:03:55.892Z,8.20
2023-11-05T02:06:23.402Z,8.10
2023-11-05T02:08:51.335Z,8.20
2023-11-05T02:11:20.036Z,8.20
2023-11-05T02:13:56.132Z,8.30
2023-11-05T02:16:32.795Z,8.20
2023-11-05T02:19:01.231Z,8.30
2023-11-05T02:21:47.663Z,8.30
2023-11-05T02:24:15.085Z,8.30
2023-11-05T02:26:42.585Z,8.40
2023-11-05T02:29:10.110Z,8.30
2023-11-05T02:31:37.700Z,8.40
2023-11-05T02:34:05.550Z,8.30
2023-11-05T02:36:33.143Z,8.40
2023-11-05T02:39:00.670Z,8.30
2023-11-05T02:41:28.100Z,8.30
2023-11-05T02:43:55.582Z,8.30
2023-11-05T02:46:23.273Z,8.20
2023-11-05T02:48:51.280Z,8.20
2023-11-05T02:51:18.844Z,8.10
2023-11-05T02:53:46.483Z,8.20
2023-11-05T02:56:14.819Z,8.20
2023-11-05T02:58:43.525Z,8.30
2023-11-05T03:01:11.793Z,8.20
2023-11-05T03:03:39.632Z,8.20
2023-11-05T03:06:07.442Z,8.10
2023-11-05T03:08:34.996Z,8.00
2023-11-05T03:11:02.547Z,8.00
2023-11-05T03:13:30.052Z,8.00
2023-11-05T03:15:57.940Z,8.00
2023-11-05T03:18:25.646Z,8.10
2023-11-05T03:20:53.258Z,8.00
2023-11-05T03:23:20.854Z,8.10
2023-11-05T03:25:48.253Z,8.00
2023-11-05T03:28:15.759Z,7.90
2023-11-05T03:30:43.762Z,7.90
2023-11-05T03:33:11.340Z,7.90
2023-11-05T03:35:39.657Z,8.00
2023-11-05T03:38:07.134Z,8.00
2023-11-05T03:40:34.581Z,8.00
2023-11-05T03:43:02.217Z,7.90
2023-11-05T03:45:29.706Z,7.90
2023-11-05T03:47:58.562Z,7.80
2023-11-05T03:50:26.171Z,7.90
2023-11-05T03:52:53.717Z,7.80
2023-11-05T03:55:21.395Z,7.90
2023-11-05T03:57:49.014Z,7.90
2023-11-05T04:00:16.715Z,7.80
2023-11-05T04:02:44.324Z,7.90
2023-11-05T04:05:11.926Z,7.80
2023-11-05T04:07:39.486Z,7.80
2023-11-05T04:10:07.388Z,7.80
2023-11-05T04:12:35.821Z,7.70
2023-11-05T04:15:06.637Z,7.80
2023-11-05T04:17:35.396Z,7.80
2023-11-05T04:20:06.419Z,7.70
2023-11-05T04:22:35.946Z,7.80
2023-11-05T04:25:03.754Z,7.80
2023-11-05T04:27:31.215Z,7.80
2023-11-05T04:29:58.621Z,7.70
2023-11-05T04:32:26.554Z,7.70
2023-11-05T04:34:54.036Z,7.70
2023-11-05T04:37:21.624Z,7.70
2023-11-05T04:39:49.097Z,7.70
2023-11-05T04:42:16.614Z,7.70
2023-11-05T04:44:44.078Z,7.60
2023-11-05T04:47:11.621Z,7.60
2023-11-05T04:49:39.104Z,7.60
2023-11-05T04:52:06.768Z,7.70
2023-11-05T04:54:34.299Z,7.60
2023-11-05T04:57:01.778Z,7.60
2023-11-05T04:59:29.243Z,7.60
2023-11-05T05:01:56.796Z,7.60
2023-11-05T05:04:24.330Z,7.60
2023-11-05T05:06:52.684Z,7.60
2023-11-05T05:09:20.136Z,7.60
2023-11-05T05:11:47.676Z,7.60
2023-11-05T05:14:15.151Z,7.70
2023-11-05T05:16:42.705Z,7.70
2023-11-05T05:19:12.036Z,7.60
2023-11-05T05:21:46.026Z,7.70
2023-11-05T05:24:13.864Z,7.60
2023-11-05T05:26:42.319Z,7.60
2023-11-05T05:29:09.925Z,7.70
2023-11-05T05:31:37.478Z,7.50
2023-11-05T05:34:05.028Z,7.50
2023-11-05T05:36:32.515Z,7.50
2023-11-05T05:39:00.073Z,7.50
2023-11-05T05:41:27.559Z,7.50
2023-11-05T05:43:55.156Z,7.70
2023-11-05T05:46:22.691Z,7.70
2023-11-05T05:48:50.203Z,7.70
2023-11-05T05:51:18.696Z,7.60
2023-11-05T05:53:46.699Z,7.70
2023-11-05T05:56:14.232Z,7.60
2023-11-05T05:58:43.768Z,7.60
2023-11-05T06:01:11.827Z,7.60
2023-11-05T06:03:39.496Z,7.60
2023-11-05T06:06:07.203Z,7.60
2023-11-05T06:08:34.669Z,7.60
2023-11-05T06:11:02.174Z,7.60
2023-11-05T06:13:29.758Z,7.60
2023-11-05T06:15:57.198Z,7.60
2023-11-05T06:18:24.738Z,7.50
2023-11-05T06:20:52.303Z,7.50
2023-11-05T06:23:19.929Z,7.50
2023-11-05T06:25:47.442Z,7.50
2023-11-05T06:28:16.495Z,7.40
2023-11-05T06:30:44.609Z,7.50
2023-11-05T06:33:12.064Z,7.50
2023-11-05T06:35:39.515Z,7.50
2023-11-05T06:38:09.078Z,7.40
2023-11-05T06:40:36.595Z,7.40
2023-11-05T06:43:04.054Z,7.40
2023-11-05T06:45:31.554Z,7.50
2023-11-05T06:47:59.094Z,7.50
2023-11-05T06:50:26.740Z,7.50
2023-11-05T06:52:54.351Z,7.50
2023-11-05T06:55:21.900Z,7.50
2023-11-05T06:57:50.259Z,7.50
2023-11-05T07:00:18.406Z,7.50
2023-11-05T07:02:46.006Z,7.50
2023-11-05T07:05:14.106Z,7.50
2023-11-05T07:07:41.755Z,7.50
2023-11-05T07:10:10.425Z,7.60
2023-11-05T07:12:42.659Z,7.50
2023-11-05T07:15:11.868Z,7.60
2023-11-05T07:17:39.759Z,7.60
2023-11-05T07:20:08.297Z,7.50
2023-11-05T07:22:37.084Z,7.60
2023-11-05T07:25:06.956Z,7.60
2023-11-05T07:27:34.833Z,7.60
2023-11-05T07:30:03.497Z,7.60
2023-11-05T07:32:31.041Z,7.50
2023-11-05T07:34:59.184Z,7.60
2023-11-05T07:37:29.142Z,7.60
2023-11-05T07:39:56.786Z,7.70
2023-11-05T07:42:24.224Z,7.70
2023-11-05T07:44:51.771Z,7.60
2023-11-05T07:47:19.227Z,7.50
2023-11-05T07:49:46.970Z,7.50
2023-11-05T07:52:15.596Z,7.50
2023-11-05T07:54:43.155Z,7.40
2023-11-05T07:57:11.541Z,7.50
2023-11-05T07:59:40.461Z,7.50
2023-11-05T08:02:07.900Z,7.50
2023-11-05T08:04:35.500Z,7.50
2023-11-05T08:07:03.113Z,7.60
2023-11-05T08:09:30.645Z,7.50
2023-11-05T08:11:59.636Z,7.50
2023-11-05T08:14:27.563Z,7.60
2023-11-05T08:16:55.282Z,7.50
2023-11-05T08:19:22.910Z,7.50
2023-11-05T08:21:50.341Z,7.50
2023-11-05T08:24:17.885Z,7.50
2023-11-05T08:26:45.597Z,7.60
2023-11-05T08:29:15.858Z,7.60
2023-11-05T08:31:46.135Z,7.60
2023-11-05T08:34:14.570Z,7.70
2023-11-05T08:36:42.153Z,7.70
2023-11-05T08:39:09.703Z,7.60
2023-11-05T08:41:37.180Z,7.60
2023-11-05T08:44:05.033Z,7.60
2023-11-05T08:46:32.510Z,7.70
2023-11-05T08:49:00.505Z,7.70
2023-11-05T08:51:29.499Z,7.70
2023-11-05T08:53:57.032Z,7.70
2023-11-05T08:56:24.580Z,7.80
2023-11-05T08:58:52.223Z,7.80
2023-11-05T09:01:20.022Z,7.90
2023-11-05T09:03:48.286Z,7.80
2023-11-05T09:06:20.168Z,7.80
2023-11-05T09:08:47.834Z,7.90
2023-11-05T09:11:15.294Z,7.90
2023-11-05T09:13:42.864Z,7.80
2023-11-05T09:16:11.945Z,7.90
2023-11-05T09:18:39.693Z,7.90
2023-11-05T09:21:07.384Z,7.90
2023-11-05T09:23:34.908Z,7.90
2023-11-05T09:26:02.728Z,7.90
2023-11-05T09:28:30.903Z,8.00
2023-11-05T09:30:58.515Z,8.00
2023-11-05T09:33:27.004Z,8.10
2023-11-05T09:35:54.588Z,8.10
2023-11-05T09:38:22.248Z,8.20
2023-11-05T09:40:49.962Z,8.10
2023-11-05T09:43:18.712Z,8.20
2023-11-05T09:45:50.341Z,8.20
2023-11-05T09:49:07.933Z,8.30
2023-11-05T09:51:36.661Z,8.30
2023-11-05T09:54:04.217Z,8.30
2023-11-05T09:56:31.701Z,8.30
2023-11-05T09:59:01.797Z,8.30
2023-11-05T10:01:31.903Z,8.40
2023-11-05T10:03:59.531Z,8.50
2023-11-05T10:06:28.610Z,8.40
2023-11-05T10:08:56.218Z,8.50
2023-11-05T10:11:25.324Z,8.50
2023-11-05T10:13:53.088Z,8.50
2023-11-05T10:16:21.666Z,8.50
2023-11-05T10:18:55.037Z,8.60
2023-11-05T10:21:35.211Z,8.70
2023-11-05T10:24:03.358Z,8.70
2023-11-05T10:26:32.506Z,8.70
2023-11-05T10:29:00.598Z,8.70
2023-11-05T10:31:29.763Z,8.80
2023-11-05T10:34:00.821Z,8.80
2023-11-05T10:36:28.550Z,8.80
2023-11-05T10:38:56.156Z,8.80
2023-11-05T10:41:25.231Z,8.80
2023-11-05T10:43:54.173Z,8.90
2023-11-05T10:46:22.685Z,9.00
2023-11-05T10:48:52.465Z,9.00
2023-11-05T10:51:24.073Z,9.00
2023-11-05T10:53:53.909Z,9.10
2023-11-05T10:56:34.235Z,9.10
2023-11-05T10:59:05.309Z,9.20
2023-11-05T11:01:36.757Z,9.10
2023-11-05T11:04:06.616Z,9.10
2023-11-05T11:06:34.613Z,9.20
2023-11-05T11:09:16.326Z,9.20
2023-11-05T11:11:44.416Z,9.20
2023-11-05T11:14:11.969Z,9.30
2023-11-05T11:16:42.971Z,9.20
2023-11-05T11:19:16.283Z,9.30
2023-11-05T11:22:00.898Z,9.20
2023-11-05T11:24:41.332Z,9.20
2023-11-05T11:27:14.462Z,9.30
2023-11-05T11:29:46.963Z,9.40
2023-11-05T11:32:17.719Z,9.50
2023-11-05T11:34:46.222Z,9.50
2023-11-05T11:37:16.482Z,9.40
2023-11-05T11:39:44.111Z,9.40
2023-11-05T11:42:16.970Z,9.50
2023-11-05T11:44:44.870Z,9.50
2023-11-05T11:47:12.344Z,9.50
2023-11-05T11:49:40.294Z,9.50
2023-11-05T11:52:07.917Z,9.50
2023-11-05T11:54:35.459Z,9.60
2023-11-05T11:57:03.220Z,9.50
2023-11-05T11:59:30.840Z,9.60
2023-11-05T12:02:00.818Z,9.60
2023-11-05T12:04:28.955Z,9.70
2023-11-05T12:06:56.446Z,9.80
2023-11-05T12:09:25.753Z,9.80
2023-11-05T12:11:53.841Z,9.90
2023-11-05T12:14:22.771Z,9.90
2023-11-05T12:16:52.587Z,9.80
2023-11-05T12:19:21.014Z,9.90
2023-11-05T12:21:51.410Z,10.10
2023-11-05T12:24:19.037Z,10.10
2023-11-05T12:26:48.390Z,10.10
2023-11-05T12:29:16.055Z,10.20
2023-11-05T12:31:47.525Z,10.20
2023-11-05T12:34:15.233Z,10.20
2023-11-05T12:36:45.039Z,10.40
2023-11-05T12:39:13.555Z,10.50
2023-11-05T12:41:41.491Z,10.60
2023-11-05T12:44:09.071Z,10.70
2023-11-05T12:46:37.010Z,10.70
2023-11-05T12:49:04.864Z,10.60
2023-11-05T12:51:34.133Z,10.50
2023-11-05T12:54:01.912Z,10.50
2023-11-05T12:56:29.424Z,10.40
2023-11-05T12:58:57.024Z,10.40
2023-11-05T13:01:24.678Z,10.50
2023-11-05T13:03:52.743Z,10.50
2023-11-05T13:06:22.086Z,10.40
2023-11-05T13:08:49.842Z,10.30
2023-11-05T13:11:19.170Z,10.40
2023-11-05T13:13:46.897Z,10.40
2023-11-05T13:16:14.477Z,10.30
2023-11-05T13:18:42.112Z,10.20
2023-11-05T13:21:09.865Z,10.20
2023-11-05T13:23:37.409Z,10.20
2023-11-05T13:26:05.050Z,10.40
2023-11-05T13:28:32.701Z,10.30
2023-11-05T13:31:00.350Z,10.40
2023-11-05T13:33:27.988Z,10.30
2023-11-05T13:35:55.717Z,10.20
2023-11-05T13:38:23.263Z,10.30
2023-11-05T13:40:51.219Z,10.30
2023-11-05T13:43:19.307Z,10.30
2023-11-05T13:45:47.167Z,10.40
2023-11-05T13:48:16.631Z,10.40
2023-11-05T13:50:45.588Z,10.50
2023-11-05T13:53:13.900Z,10.50
2023-11-05T13:55:42.096Z,10.50
2023-11-05T13:58:10.138Z,10.50
2023-11-05T14:00:38.311Z,10.50
2023-11-05T14:03:07.637Z,10.60
2023-11-05T14:05:35.285Z,10.60
2023-11-05T14:08:04.664Z,10.50
2023-11-05T14:10:32.386Z,10.50
2023-11-05T14:12:59.978Z,10.50
2023-11-05T14:15:27.519Z,10.50
2023-11-05T14:17:55.962Z,10.50
2023-11-05T14:20:23.814Z,10.50
2023-11-05T14:22:51.387Z,10.50
2023-11-05T14:25:18.832Z,10.50
2023-11-05T14:27:46.367Z,10.40
2023-11-05T14:30:15.030Z,10.40
2023-11-05T14:32:42.971Z,10.50
2023-11-05T14:35:10.898Z,10.50
2023-11-05T14:37:39.079Z,10.50
2023-11-05T14:40:10.400Z,10.50
2023-11-05T14:42:38.078Z,10.40
2023-11-05T14:45:19.064Z,10.40
2023-11-05T14:47:53.124Z,10.40
2023-11-05T14:50:20.945Z,10.30
2023-11-05T14:52:48.559Z,10.30
2023-11-05T14:55:16.607Z,10.30
2023-11-05T14:57:44.298Z,10.30
2023-11-05T15:00:13.328Z,10.20
2023-11-05T15:02:41.370Z,10.20
2023-11-05T15:05:14.947Z,10.10
2023-11-05T15:07:42.701Z,10.10
2023-11-05T15:10:12.190Z,10.00
2023-11-05T15:12:39.900Z,10.00
2023-11-05T15:15:08.261Z,10.00
2023-11-05T15:17:36.839Z,10.00
2023-11-05T15:20:05.280Z,10.00
2023-11-05T15:22:32.991Z,10.00
2023-11-05T15:25:00.634Z,9.90
2023-11-05T15:27:31.169Z,9.90
2023-11-05T15:29:59.410Z,9.90
2023-11-05T15:32:27.082Z,9.90
2023-11-05T15:35:00.045Z,9.80
2023-11-05T15:37:28.899Z,9.80
2023-11-05T15:39:57.028Z,9.70
2023-11-05T15:42:24.728Z,9.70
2023-11-05T15:44:52.226Z,9.70
2023-11-05T15:47:20.358Z,9.60
2023-11-05T15:49:48.066Z,9.60
2023-11-05T15:52:15.719Z,9.50
2023-11-05T15:54:46.001Z,9.40
2023-11-05T15:57:13.692Z,9.40
2023-11-05T15:59:41.107Z,9.30
2023-11-05T16:02:10.446Z,9.20
2023-11-05T16:04:38.812Z,9.20
2023-11-05T16:07:06.420Z,9.10
2023-11-05T16:09:33.875Z,9.10
2023-11-05T16:12:01.399Z,9.10
2023-11-05T16:14:31.532Z,9.10
2023-11-05T16:16:59.126Z,9.10
2023-11-05T16:19:26.616Z,9.10
2023-11-05T16:21:54.220Z,9.10
2023-11-05T16:24:21.791Z,9.00
2023-11-05T16:26:49.320Z,9.00
2023-11-05T16:29:16.732Z,9.10
2023-11-05T16:31:45.309Z,9.10
2023-11-05T16:34:14.746Z,9.10
2023-11-05T16:36:43.678Z,9.10
2023-11-05T16:39:13.943Z,9.00
2023-11-05T16:41:41.537Z,8.40
2023-11-05T16:44:09.318Z,9.00
2023-11-05T16:46:37.178Z,8.90
2023-11-05T16:49:04.982Z,7.40
2023-11-05T16:51:34.758Z,8.70
2023-11-05T16:54:02.320Z,8.70
2023-11-05T16:56:31.193Z,8.60
2023-11-05T16:58:58.814Z,8.60
2023-11-05T17:01:30.089Z,8.60
2023-11-05T17:03:58.391Z,8.60
2023-11-05T17:06:25.954Z,8.60
2023-11-05T17:08:53.457Z,8.60
2023-11-05T17:11:21.010Z,8.60
2023-11-05T17:13:49.028Z,8.60
2023-11-05T17:16:17.675Z,8.60
2023-11-05T17:18:45.272Z,8.70
2023-11-05T17:21:12.966Z,8.70
2023-11-05T17:23:40.475Z,8.70
2023-11-05T17:26:08.915Z,8.70
2023-11-05T17:28:36.649Z,8.60
2023-11-05T17:31:04.540Z,8.70
2023-11-05T17:33:32.086Z,8.70
2023-11-05T17:35:59.637Z,8.70
2023-11-05T17:38:27.151Z,8.60
2023-11-05T17:40:54.758Z,8.60
2023-11-05T17:43:22.308Z,8.50
2023-11-05T17:45:51.483Z,8.50
2023-11-05T17:48:19.035Z,8.50
2023-11-05T17:50:46.668Z,8.60
2023-11-05T17:53:14.403Z,8.50
2023-11-05T17:55:42.045Z,8.50
2023-11-05T17:58:09.575Z,8.40
2023-11-05T18:00:38.188Z,8.40
2023-11-05T18:03:07.586Z,8.30
2023-11-05T18:05:40.122Z,8.30
2023-11-05T18:08:07.803Z,8.30
2023-11-05T18:10:46.636Z,8.20
2023-11-05T18:13:18.189Z,8.20
2023-11-05T18:15:46.412Z,8.20
2023-11-05T18:18:14.485Z,8.10
2023-11-05T18:20:42.012Z,8.00
2023-11-05T18:23:09.780Z,8.00
2023-11-05T18:25:37.558Z,7.90
2023-11-05T18:28:05.423Z,8.00
2023-11-05T18:30:33.989Z,7.90
2023-11-05T18:33:01.714Z,8.00
2023-11-05T18:35:33.669Z,7.90
2023-11-05T18:38:01.351Z,7.90
2023-11-05T18:40:28.842Z,7.80
2023-11-05T18:42:57.758Z,7.80
2023-11-05T18:45:26.009Z,7.70
2023-11-05T18:47:53.819Z,7.80
2023-11-05T18:50:21.736Z,7.60
2023-11-05T18:52:49.291Z,7.60
2023-11-05T18:55:16.807Z,7.40
2023-11-05T18:57:44.639Z,7.40
2023-11-05T19:00:14.560Z,7.40
2023-11-05T19:02:43.961Z,7.40
2023-11-05T19:05:12.576Z,7.40
2023-11-05T19:07:40.960Z,7.40
2023-11-05T19:10:10.284Z,7.30
2023-11-05T19:12:37.861Z,7.30
2023-11-05T19:15:05.880Z,7.40
2023-11-05T19:17:33.499Z,7.40
2023-11-05T19:20:01.088Z,7.40
2023-11-05T19:22:28.600Z,7.40
2023-11-05T19:24:56.188Z,7.50
2023-11-05T19:27:24.178Z,7.50
2023-11-05T19:29:53.108Z,7.60
2023-11-05T19:32:20.841Z,7.60
2023-11-05T19:34:48.458Z,7.60
2023-11-05T19:37:16.460Z,7.60
2023-11-05T19:39:45.132Z,7.50
2023-11-05T19:42:12.829Z,7.60
2023-11-05T19:44:40.266Z,7.60
2023-11-05T19:47:10.113Z,7.60
2023-11-05T19:49:39.452Z,7.60
2023-11-05T19:52:07.537Z,7.60
2023-11-05T19:54:35.045Z,7.60
2023-11-05T19:57:02.509Z,7.50
2023-11-05T19:59:30.679Z,7.60
2023-11-05T20:01:58.966Z,7.60
2023-11-05T20:04:28.531Z,7.40
2023-11-05T20:07:00.311Z,7.40
2023-11-05T20:09:28.083Z,7.50
2023-11-05T20:11:55.735Z,7.50
2023-11-05T20:14:27.019Z,7.60
2023-11-05T20:16:57.115Z,7.50
2023-11-05T20:19:25.190Z,7.50
2023-11-05T20:21:54.545Z,7.50
2023-11-05T20:24:22.834Z,7.50
2023-11-05T20:26:50.939Z,7.40
2023-11-05T20:29:19.295Z,7.40
2023-11-05T20:31:47.190Z,7.40
2023-11-05T20:34:16.048Z,7.40
2023-11-05T20:36:43.689Z,7.40
2023-11-05T20:39:11.305Z,7.40
2023-11-05T20:41:38.822Z,7.60
2023-11-05T20:44:06.490Z,7.60
2023-11-05T20:46:34.290Z,7.60
2023-11-05T20:49:04.730Z,7.70
2023-11-05T20:51:32.373Z,7.70
2023-11-05T20:53:59.942Z,7.60
2023-11-05T20:56:27.557Z,7.70
2023-11-05T20:58:55.069Z,7.80
2023-11-05T21:01:22.651Z,7.80
2023-11-05T21:03:50.308Z,7.80
2023-11-05T21:06:18.075Z,7.90
2023-11-05T21:08:45.611Z,7.90
2023-11-05T21:11:13.522Z,8.00
2023-11-05T21:13:41.811Z,7.90
2023-11-05T21:16:09.456Z,7.90
2023-11-05T21:18:37.186Z,7.90
2023-11-05T21:21:05.226Z,7.90
2023-11-05T21:23:32.940Z,7.90
2023-11-05T21:26:02.213Z,7.90
2023-11-05T21:28:29.900Z,7.90
2023-11-05T21:30:59.688Z,7.80
2023-11-05T21:33:28.575Z,7.90
2023-11-05T21:35:57.730Z,7.80
2023-11-05T21:38:25.338Z,7.70
2023-11-05T21:40:52.875Z,7.80
2023-11-05T21:43:21.113Z,7.80
2023-11-05T21:45:52.080Z,7.70
2023-11-05T21:48:24.501Z,7.60
2023-11-05T21:50:51.984Z,7.60
2023-11-05T21:53:19.588Z,7.60
2023-11-05T21:55:47.170Z,7.60
2023-11-05T21:58:14.775Z,7.50
2023-11-05T22:00:42.225Z,7.50
2023-11-05T22:03:09.940Z,7.40
2023-11-05T22:05:37.745Z,7.40
2023-11-05T22:08:05.873Z,7.40
2023-11-05T22:10:33.486Z,7.40
2023-11-05T22:13:01.012Z,7.40
2023-11-05T22:15:28.516Z,7.30
2023-11-05T22:17:57.110Z,7.30
2023-11-05T22:20:24.698Z,7.40
2023-11-05T22:22:52.209Z,7.30
2023-11-05T22:25:19.726Z,7.30
2023-11-05T22:27:47.248Z,7.20
2023-11-05T22:30:14.742Z,7.30
2023-11-05T22:32:42.357Z,7.30
2023-11-05T22:35:10.737Z,7.10
2023-11-05T22:37:38.304Z,7.10
2023-11-05T22:40:07.522Z,7.00
2023-11-05T22:42:35.166Z,7.20
2023-11-05T22:45:02.637Z,7.00
2023-11-05T22:47:30.230Z,7.10
2023-11-05T22:49:58.150Z,7.20
2023-11-05T22:52:25.781Z,7.10
2023-11-05T22:54:53.769Z,7.20
2023-11-05T22:57:21.311Z,7.30
2023-11-05T22:59:48.791Z,7.30
2023-11-05T23:02:16.628Z,7.40
2023-11-05T23:04:44.329Z,7.40
2023-11-05T23:07:11.985Z,7.40
2023-11-05T23:09:39.536Z,7.30
2023-11-05T23:12:07.410Z,7.40
2023-11-05T23:14:34.857Z,7.40
2023-11-05T23:17:02.361Z,7.40
2023-11-05T23:19:29.833Z,7.40
2023-11-05T23:21:57.376Z,7.50
2023-11-05T23:24:24.892Z,7.50
2023-11-05T23:26:52.398Z,7.60
2023-11-05T23:29:19.915Z,7.50
2023-11-05T23:31:47.568Z,7.50
2023-11-05T23:34:15.128Z,7.50
2023-11-05T23:36:42.878Z,7.60
2023-11-05T23:39:11.098Z,7.60
2023-11-05T23:41:38.807Z,7.60
2023-11-05T23:44:06.750Z,7.60
2023-11-05T23:46:34.515Z,7.60
2023-11-05T23:49:02.044Z,7.60
2023-11-05T23:51:29.781Z,7.60
2023-11-05T23:53:57.241Z,7.60
2023-11-05T23:56:24.876Z,7.60
2023-11-05T23:58:52.412Z,7.50
